SS Delphine — CQTJ — position and weather

sailwx.info

Track history (hours):
 
Tides and Currents Weather Stations Pressure Air Temp Water Temp Dewpoint Dewpoint Depression Visibility Wind Speed Wind Dir Waves Ship Positions

SS Delphine

Last reported at 2018-Aug-04 14:38 UTC. Time now 2018-Aug-19 22:53 UTC.
Position N 38°02' E 022°47'.
Warning: this ship's position is 15 days out of date.

Length 79 m; draft 4.6 m.

Type: . MMSI: 255986000.

Date/timePositionNaut miles runAvg speedWind from/ knotsBaromVisibWave heightAir tempDewpointWater temp
2018-Aug-04 14:38N 38°02' E 022°47'1 6.4
2018-Aug-04 14:25N 38°02' E 022°48'3 6.5
2018-Aug-04 14:00N 38°00' E 022°51'3 6.1
2018-Aug-04 13:30N 37°59' E 022°55'3 6.0
2018-Aug-04 13:00N 37°57' E 022°58'3 5.4
2018-Aug-04 12:30N 37°55' E 023°00'1 2.5
2018-Aug-04 12:00N 37°54' E 023°01'0 0.5
2018-Aug-04 11:30N 37°55' E 023°02'1 2.2
2018-Aug-04 11:00N 37°54' E 023°03'2 5.0
2018-Aug-04 10:30N 37°53' E 023°06'3 6.0
2018-Aug-04 10:00N 37°53' E 023°09'3 6.1
2018-Aug-04 09:30N 37°53' E 023°13'3 6.4
2018-Aug-04 09:00N 37°53' E 023°17'4 6.9
2018-Aug-04 08:29N 37°52' E 023°22'4 7.0
2018-Aug-04 07:59N 37°52' E 023°26'3 6.8
2018-Aug-04 07:30N 37°52' E 023°30'3 6.1
2018-Aug-04 07:01N 37°52' E 023°34'3 6.9
2018-Aug-04 06:30N 37°55' E 023°37'2 3.8
2018-Aug-04 06:00N 37°56' E 023°39'0 0.0
2018-Aug-04 05:30N 37°56' E 023°39'0 0.0
2018-Aug-04 05:00N 37°56' E 023°39'0 0.0
2018-Aug-04 04:30N 37°56' E 023°39'0 0.0
2018-Aug-04 04:00N 37°56' E 023°39'0 0.0
2018-Aug-04 03:30N 37°56' E 023°39'0 0.0
2018-Aug-04 03:00N 37°56' E 023°39'0 0.0
2018-Aug-04 02:30N 37°56' E 023°39'0 0.0
2018-Aug-04 02:00N 37°56' E 023°39'0 0.0
2018-Aug-04 01:30N 37°56' E 023°39'0 0.0
2018-Aug-04 01:00N 37°56' E 023°39'0 0.0
2018-Aug-04 00:30N 37°56' E 023°39'0 0.0
2018-Aug-04 00:00N 37°56' E 023°39'0 0.0
2018-Aug-03 23:30N 37°56' E 023°39'0 0.0
2018-Aug-03 23:00N 37°56' E 023°39'0 0.0
2018-Aug-03 22:30N 37°56' E 023°39'0 0.0
2018-Aug-03 22:00N 37°56' E 023°39'0 0.0
2018-Aug-03 21:30N 37°56' E 023°39'0 0.0
2018-Aug-03 21:00N 37°56' E 023°39'0 0.0
2018-Aug-03 20:30N 37°56' E 023°39'0 0.0
2018-Aug-03 20:00N 37°56' E 023°39'0 0.0
2018-Aug-03 19:30N 37°56' E 023°39'0 0.0
2018-Aug-03 19:00N 37°56' E 023°39'0 0.0
2018-Aug-03 18:30N 37°56' E 023°39'0 0.0
2018-Aug-03 18:00N 37°56' E 023°39'0 0.0
2018-Aug-03 17:30N 37°56' E 023°39'0 0.0
2018-Aug-03 17:00N 37°56' E 023°39'0 0.0
2018-Aug-03 16:30N 37°56' E 023°39'0 0.0
2018-Aug-03 16:00N 37°56' E 023°39'0 0.0
2018-Aug-03 15:30N 37°56' E 023°39'0 0.0
2018-Aug-03 15:00N 37°56' E 023°39'0 0.0
2018-Aug-03 14:30N 37°56' E 023°39'0 0.0
2018-Aug-03 14:00N 37°56' E 023°39'0 0.0
2018-Aug-03 13:30N 37°56' E 023°39'0 0.0
2018-Aug-03 13:00N 37°56' E 023°39'0 0.0
2018-Aug-03 12:30N 37°56' E 023°39'0 0.0
2018-Aug-03 12:00N 37°56' E 023°39'0 0.0
2018-Aug-03 11:30N 37°56' E 023°39'0 0.0
2018-Aug-03 11:00N 37°56' E 023°39'0 0.0
2018-Aug-03 10:31N 37°56' E 023°39'2 3.0
2018-Aug-03 10:00N 37°54' E 023°39'3 6.8
2018-Aug-03 09:31N 37°51' E 023°39'3 6.7
2018-Aug-03 09:01N 37°48' E 023°41'3 6.1
2018-Aug-03 08:31N 37°45' E 023°43'53 6.4
2018-Aug-03 00:07N 37°23' E 024°44'1 6.9
2018-Aug-03 00:01N 37°23' E 024°45'4 7.0
2018-Aug-02 23:31N 37°22' E 024°49'3 6.8
2018-Aug-02 23:01N 37°20' E 024°53'3 7.0
2018-Aug-02 22:31N 37°19' E 024°57'4 7.3
2018-Aug-02 22:01N 37°17' E 025°01'4 7.7
2018-Aug-02 21:31N 37°15' E 025°05'4 7.6
2018-Aug-02 21:01N 37°14' E 025°10'4 7.3
2018-Aug-02 20:30N 37°12' E 025°14'4 7.1
2018-Aug-02 20:00N 37°11' E 025°18'3 6.6
2018-Aug-02 19:30N 37°08' E 025°20'2 4.4
2018-Aug-02 18:58N 37°06' E 025°22'0 0.1
2018-Aug-02 18:28N 37°06' E 025°22'0 0.0
2018-Aug-02 17:55N 37°06' E 025°22'0 0.0
2018-Aug-02 17:25N 37°06' E 025°22'0 0.0
2018-Aug-02 16:58N 37°06' E 025°22'0 0.0
2018-Aug-02 16:28N 37°06' E 025°22'0 0.0
2018-Aug-02 16:00N 37°06' E 025°22'0 0.0
2018-Aug-02 15:30N 37°06' E 025°22'0 0.9
2018-Aug-02 15:00N 37°06' E 025°22'0 0.4
2018-Aug-02 14:30N 37°06' E 025°22'1 1.9
2018-Aug-02 14:00N 37°06' E 025°21'2 3.7
2018-Aug-02 13:30N 37°04' E 025°20'0 0.8
2018-Aug-02 13:00N 37°04' E 025°21'0 0.0
2018-Aug-02 12:30N 37°04' E 025°21'0 0.0
2018-Aug-02 12:00N 37°04' E 025°21'0 0.0
2018-Aug-02 11:30N 37°04' E 025°21'0 0.0
2018-Aug-02 11:00N 37°04' E 025°21'0 0.0
2018-Aug-02 10:30N 37°04' E 025°21'0 0.0
2018-Aug-02 10:00N 37°04' E 025°21'0 0.0
2018-Aug-02 09:30N 37°04' E 025°21'1 2.7
2018-Aug-02 09:00N 37°05' E 025°19'4 7.4
2018-Aug-02 08:30N 37°08' E 025°19'4 7.5
2018-Aug-02 08:00N 37°12' E 025°19'4 7.6
2018-Aug-02 07:30N 37°16' E 025°20'4 7.1
2018-Aug-02 06:59N 37°20' E 025°20'3 6.8
2018-Aug-02 06:30N 37°23' E 025°20'2 2.7
2018-Aug-02 05:55N 37°24' E 025°20'0 0.0
2018-Aug-02 05:28N 37°24' E 025°20'0 0.0
2018-Aug-02 04:58N 37°24' E 025°20'0 0.1
2018-Aug-02 04:25N 37°24' E 025°20'0 0.0
2018-Aug-02 03:58N 37°24' E 025°20'0 0.0
2018-Aug-02 03:28N 37°24' E 025°20'0 0.0
2018-Aug-02 02:55N 37°24' E 025°20'0 0.0
2018-Aug-02 02:28N 37°24' E 025°20'0 0.0
2018-Aug-02 01:58N 37°24' E 025°20'0 0.0
2018-Aug-02 01:28N 37°24' E 025°20'0 0.0
2018-Aug-02 00:58N 37°24' E 025°20'0 0.0
2018-Aug-02 00:28N 37°24' E 025°20'0 0.0
2018-Aug-01 23:58N 37°24' E 025°20'0 0.0
2018-Aug-01 23:25N 37°24' E 025°20'0 0.0
2018-Aug-01 22:58N 37°24' E 025°20'0 0.0
2018-Aug-01 22:28N 37°24' E 025°20'0 0.0
2018-Aug-01 21:58N 37°24' E 025°20'0 0.0
2018-Aug-01 21:25N 37°24' E 025°20'0 0.0
2018-Aug-01 20:58N 37°24' E 025°20'0 0.0
2018-Aug-01 20:28N 37°24' E 025°20'0 0.0
2018-Aug-01 19:55N 37°24' E 025°20'0 0.0
2018-Aug-01 19:28N 37°24' E 025°20'0 0.1
2018-Aug-01 18:58N 37°24' E 025°20'0 0.1
2018-Aug-01 18:28N 37°24' E 025°20'0 0.0
2018-Aug-01 17:58N 37°24' E 025°20'0 0.0
2018-Aug-01 17:28N 37°24' E 025°20'0 0.0
2018-Aug-01 16:58N 37°24' E 025°20'0 0.0
2018-Aug-01 16:22N 37°24' E 025°20'0 0.0
2018-Aug-01 15:55N 37°24' E 025°20'0 0.0
2018-Aug-01 15:28N 37°24' E 025°20'0 0.0
2018-Aug-01 14:58N 37°24' E 025°20'0 0.0
2018-Aug-01 14:28N 37°24' E 025°20'0 0.0
2018-Aug-01 13:22N 37°24' E 025°20'0 0.0
2018-Aug-01 12:58N 37°24' E 025°20'0 0.0
2018-Aug-01 12:28N 37°24' E 025°20'0 0.0
2018-Aug-01 11:58N 37°24' E 025°20'0 0.0
2018-Aug-01 11:28N 37°24' E 025°20'0 0.0
2018-Aug-01 10:58N 37°24' E 025°20'0 0.0
2018-Aug-01 10:25N 37°24' E 025°20'0 0.0
2018-Aug-01 10:01N 37°24' E 025°20'0 0.0
2018-Aug-01 09:31N 37°24' E 025°20'0 0.0
2018-Aug-01 09:01N 37°24' E 025°20'0 0.0
2018-Aug-01 08:27N 37°24' E 025°20'0 0.0
2018-Aug-01 08:00N 37°24' E 025°20'0 0.0
2018-Aug-01 07:30N 37°24' E 025°20'0 0.0
2018-Aug-01 07:00N 37°24' E 025°20'0 0.0
2018-Aug-01 06:30N 37°24' E 025°20'0 0.0
2018-Aug-01 06:00N 37°24' E 025°20'0 0.0
2018-Aug-01 05:30N 37°24' E 025°20'0 0.0
2018-Aug-01 05:00N 37°24' E 025°20'0 0.0
2018-Aug-01 04:27N 37°24' E 025°20'0 0.0
2018-Aug-01 04:00N 37°24' E 025°20'0 0.0
2018-Aug-01 03:30N 37°24' E 025°20'0 0.0
2018-Aug-01 03:00N 37°24' E 025°20'0 0.0
2018-Aug-01 02:27N 37°24' E 025°20'0 0.0
2018-Aug-01 02:00N 37°24' E 025°20'0 0.0
2018-Aug-01 01:30N 37°24' E 025°20'0 0.0
2018-Aug-01 01:00N 37°24' E 025°20'0 0.0
2018-Jul-31 22:30N 37°24' E 025°20'0 0.0
2018-Jul-31 22:00N 37°24' E 025°20'0 0.0
2018-Jul-31 21:30N 37°24' E 025°20'0 0.0
2018-Jul-31 21:01N 37°24' E 025°20'0 0.0
2018-Jul-31 20:31N 37°24' E 025°20'0 0.0
2018-Jul-31 20:01N 37°24' E 025°20'0 0.0
2018-Jul-31 19:31N 37°24' E 025°20'0 0.0
2018-Jul-31 19:01N 37°24' E 025°20'0 0.0
2018-Jul-31 18:31N 37°24' E 025°20'0 0.0
2018-Jul-31 18:00N 37°24' E 025°20'0 0.0
2018-Jul-31 17:31N 37°24' E 025°20'0 0.0
2018-Jul-31 17:00N 37°24' E 025°20'0 0.1
2018-Jul-31 16:31N 37°24' E 025°20'0 0.0
2018-Jul-31 16:01N 37°24' E 025°20'0 0.0
2018-Jul-31 15:30N 37°24' E 025°20'0 0.0
2018-Jul-31 15:00N 37°24' E 025°20'0 0.0
2018-Jul-31 14:30N 37°24' E 025°20'0 0.0
2018-Jul-31 14:01N 37°24' E 025°20'0 0.0
2018-Jul-31 13:30N 37°24' E 025°20'0 0.0
2018-Jul-31 13:00N 37°24' E 025°20'0 0.0
2018-Jul-31 12:31N 37°24' E 025°20'0 0.0
2018-Jul-31 12:00N 37°24' E 025°20'0 0.0
2018-Jul-31 11:31N 37°24' E 025°20'0 0.1
2018-Jul-31 11:00N 37°24' E 025°20'0 0.1
2018-Jul-31 10:30N 37°24' E 025°20'0 0.0
2018-Jul-31 10:00N 37°24' E 025°20'0 0.0
2018-Jul-31 09:30N 37°24' E 025°20'0 0.0
2018-Jul-31 09:00N 37°24' E 025°20'2 3.2
2018-Jul-31 08:30N 37°23' E 025°20'2 3.9
2018-Jul-31 08:00N 37°21' E 025°20'2 3.7
2018-Jul-31 07:30N 37°19' E 025°20'2 3.8
2018-Jul-31 07:01N 37°17' E 025°20'2 4.0
2018-Jul-31 06:31N 37°15' E 025°20'2 4.3
2018-Jul-31 06:00N 37°13' E 025°20'2 4.4
2018-Jul-31 05:31N 37°11' E 025°19'2 4.9
2018-Jul-31 05:00N 37°08' E 025°19'2 4.7
2018-Jul-31 04:31N 37°06' E 025°19'2 5.0
2018-Jul-31 04:01N 37°04' E 025°18'3 5.1
2018-Jul-31 03:30N 37°01' E 025°18'  
Track history (hours):
 
Tides and Currents Weather Stations Pressure Air Temp Water Temp Dewpoint Dewpoint Depression Visibility Wind Speed Wind Dir Waves Ship Positions

SS Delphine

Last reported at 2018-Aug-04 14:38 UTC. Time now 2018-Aug-19 22:53 UTC.
Position N 38°02' E 022°47'.
Warning: this ship's position is 15 days out of date.

Length 79 m; draft 4.6 m.

Type: . MMSI: 255986000.

Date/timePositionNaut miles runAvg speedWind from/ knotsBaromVisibWave heightAir tempDewpointWater temp
2018-Aug-04 14:38N 38°02' E 022°47'1 6.4
2018-Aug-04 14:25N 38°02' E 022°48'3 6.5
2018-Aug-04 14:00N 38°00' E 022°51'3 6.1
2018-Aug-04 13:30N 37°59' E 022°55'3 6.0
2018-Aug-04 13:00N 37°57' E 022°58'3 5.4
2018-Aug-04 12:30N 37°55' E 023°00'1 2.5
2018-Aug-04 12:00N 37°54' E 023°01'0 0.5
2018-Aug-04 11:30N 37°55' E 023°02'1 2.2
2018-Aug-04 11:00N 37°54' E 023°03'2 5.0
2018-Aug-04 10:30N 37°53' E 023°06'3 6.0
2018-Aug-04 10:00N 37°53' E 023°09'3 6.1
2018-Aug-04 09:30N 37°53' E 023°13'3 6.4
2018-Aug-04 09:00N 37°53' E 023°17'4 6.9
2018-Aug-04 08:29N 37°52' E 023°22'4 7.0
2018-Aug-04 07:59N 37°52' E 023°26'3 6.8
2018-Aug-04 07:30N 37°52' E 023°30'3 6.1
2018-Aug-04 07:01N 37°52' E 023°34'3 6.9
2018-Aug-04 06:30N 37°55' E 023°37'2 3.8
2018-Aug-04 06:00N 37°56' E 023°39'0 0.0
2018-Aug-04 05:30N 37°56' E 023°39'0 0.0
2018-Aug-04 05:00N 37°56' E 023°39'0 0.0
2018-Aug-04 04:30N 37°56' E 023°39'0 0.0
2018-Aug-04 04:00N 37°56' E 023°39'0 0.0
2018-Aug-04 03:30N 37°56' E 023°39'0 0.0
2018-Aug-04 03:00N 37°56' E 023°39'0 0.0
2018-Aug-04 02:30N 37°56' E 023°39'0 0.0
2018-Aug-04 02:00N 37°56' E 023°39'0 0.0
2018-Aug-04 01:30N 37°56' E 023°39'0 0.0
2018-Aug-04 01:00N 37°56' E 023°39'0 0.0
2018-Aug-04 00:30N 37°56' E 023°39'0 0.0
2018-Aug-04 00:00N 37°56' E 023°39'0 0.0
2018-Aug-03 23:30N 37°56' E 023°39'0 0.0
2018-Aug-03 23:00N 37°56' E 023°39'0 0.0
2018-Aug-03 22:30N 37°56' E 023°39'0 0.0
2018-Aug-03 22:00N 37°56' E 023°39'0 0.0
2018-Aug-03 21:30N 37°56' E 023°39'0 0.0
2018-Aug-03 21:00N 37°56' E 023°39'0 0.0
2018-Aug-03 20:30N 37°56' E 023°39'0 0.0
2018-Aug-03 20:00N 37°56' E 023°39'0 0.0
2018-Aug-03 19:30N 37°56' E 023°39'0 0.0
2018-Aug-03 19:00N 37°56' E 023°39'0 0.0
2018-Aug-03 18:30N 37°56' E 023°39'0 0.0
2018-Aug-03 18:00N 37°56' E 023°39'0 0.0
2018-Aug-03 17:30N 37°56' E 023°39'0 0.0
2018-Aug-03 17:00N 37°56' E 023°39'0 0.0
2018-Aug-03 16:30N 37°56' E 023°39'0 0.0
2018-Aug-03 16:00N 37°56' E 023°39'0 0.0
2018-Aug-03 15:30N 37°56' E 023°39'0 0.0
2018-Aug-03 15:00N 37°56' E 023°39'0 0.0
2018-Aug-03 14:30N 37°56' E 023°39'0 0.0
2018-Aug-03 14:00N 37°56' E 023°39'0 0.0
2018-Aug-03 13:30N 37°56' E 023°39'0 0.0
2018-Aug-03 13:00N 37°56' E 023°39'0 0.0
2018-Aug-03 12:30N 37°56' E 023°39'0 0.0
2018-Aug-03 12:00N 37°56' E 023°39'0 0.0
2018-Aug-03 11:30N 37°56' E 023°39'0 0.0
2018-Aug-03 11:00N 37°56' E 023°39'0 0.0
2018-Aug-03 10:31N 37°56' E 023°39'2 3.0
2018-Aug-03 10:00N 37°54' E 023°39'3 6.8
2018-Aug-03 09:31N 37°51' E 023°39'3 6.7
2018-Aug-03 09:01N 37°48' E 023°41'3 6.1
2018-Aug-03 08:31N 37°45' E 023°43'53 6.4
2018-Aug-03 00:07N 37°23' E 024°44'1 6.9
2018-Aug-03 00:01N 37°23' E 024°45'4 7.0
2018-Aug-02 23:31N 37°22' E 024°49'3 6.8
2018-Aug-02 23:01N 37°20' E 024°53'3 7.0
2018-Aug-02 22:31N 37°19' E 024°57'4 7.3
2018-Aug-02 22:01N 37°17' E 025°01'4 7.7
2018-Aug-02 21:31N 37°15' E 025°05'4 7.6
2018-Aug-02 21:01N 37°14' E 025°10'4 7.3
2018-Aug-02 20:30N 37°12' E 025°14'4 7.1
2018-Aug-02 20:00N 37°11' E 025°18'3 6.6
2018-Aug-02 19:30N 37°08' E 025°20'2 4.4
2018-Aug-02 18:58N 37°06' E 025°22'0 0.1
2018-Aug-02 18:28N 37°06' E 025°22'0 0.0
2018-Aug-02 17:55N 37°06' E 025°22'0 0.0
2018-Aug-02 17:25N 37°06' E 025°22'0 0.0
2018-Aug-02 16:58N 37°06' E 025°22'0 0.0
2018-Aug-02 16:28N 37°06' E 025°22'0 0.0
2018-Aug-02 16:00N 37°06' E 025°22'0 0.0
2018-Aug-02 15:30N 37°06' E 025°22'0 0.9
2018-Aug-02 15:00N 37°06' E 025°22'0 0.4
2018-Aug-02 14:30N 37°06' E 025°22'1 1.9
2018-Aug-02 14:00N 37°06' E 025°21'2 3.7
2018-Aug-02 13:30N 37°04' E 025°20'0 0.8
2018-Aug-02 13:00N 37°04' E 025°21'0 0.0
2018-Aug-02 12:30N 37°04' E 025°21'0 0.0
2018-Aug-02 12:00N 37°04' E 025°21'0 0.0
2018-Aug-02 11:30N 37°04' E 025°21'0 0.0
2018-Aug-02 11:00N 37°04' E 025°21'0 0.0
2018-Aug-02 10:30N 37°04' E 025°21'0 0.0
2018-Aug-02 10:00N 37°04' E 025°21'0 0.0
2018-Aug-02 09:30N 37°04' E 025°21'1 2.7
2018-Aug-02 09:00N 37°05' E 025°19'4 7.4
2018-Aug-02 08:30N 37°08' E 025°19'4 7.5
2018-Aug-02 08:00N 37°12' E 025°19'4 7.6
2018-Aug-02 07:30N 37°16' E 025°20'4 7.1
2018-Aug-02 06:59N 37°20' E 025°20'3 6.8
2018-Aug-02 06:30N 37°23' E 025°20'2 2.7
2018-Aug-02 05:55N 37°24' E 025°20'0 0.0
2018-Aug-02 05:28N 37°24' E 025°20'0 0.0
2018-Aug-02 04:58N 37°24' E 025°20'0 0.1
2018-Aug-02 04:25N 37°24' E 025°20'0 0.0
2018-Aug-02 03:58N 37°24' E 025°20'0 0.0
2018-Aug-02 03:28N 37°24' E 025°20'0 0.0
2018-Aug-02 02:55N 37°24' E 025°20'0 0.0
2018-Aug-02 02:28N 37°24' E 025°20'0 0.0
2018-Aug-02 01:58N 37°24' E 025°20'0 0.0
2018-Aug-02 01:28N 37°24' E 025°20'0 0.0
2018-Aug-02 00:58N 37°24' E 025°20'0 0.0
2018-Aug-02 00:28N 37°24' E 025°20'0 0.0
2018-Aug-01 23:58N 37°24' E 025°20'0 0.0
2018-Aug-01 23:25N 37°24' E 025°20'0 0.0
2018-Aug-01 22:58N 37°24' E 025°20'0 0.0
2018-Aug-01 22:28N 37°24' E 025°20'0 0.0
2018-Aug-01 21:58N 37°24' E 025°20'0 0.0
2018-Aug-01 21:25N 37°24' E 025°20'0 0.0
2018-Aug-01 20:58N 37°24' E 025°20'0 0.0
2018-Aug-01 20:28N 37°24' E 025°20'0 0.0
2018-Aug-01 19:55N 37°24' E 025°20'0 0.0
2018-Aug-01 19:28N 37°24' E 025°20'0 0.1
2018-Aug-01 18:58N 37°24' E 025°20'0 0.1
2018-Aug-01 18:28N 37°24' E 025°20'0 0.0
2018-Aug-01 17:58N 37°24' E 025°20'0 0.0
2018-Aug-01 17:28N 37°24' E 025°20'0 0.0
2018-Aug-01 16:58N 37°24' E 025°20'0 0.0
2018-Aug-01 16:22N 37°24' E 025°20'0 0.0
2018-Aug-01 15:55N 37°24' E 025°20'0 0.0
2018-Aug-01 15:28N 37°24' E 025°20'0 0.0
2018-Aug-01 14:58N 37°24' E 025°20'0 0.0
2018-Aug-01 14:28N 37°24' E 025°20'0 0.0
2018-Aug-01 13:22N 37°24' E 025°20'0 0.0
2018-Aug-01 12:58N 37°24' E 025°20'0 0.0
2018-Aug-01 12:28N 37°24' E 025°20'0 0.0
2018-Aug-01 11:58N 37°24' E 025°20'0 0.0
2018-Aug-01 11:28N 37°24' E 025°20'0 0.0
2018-Aug-01 10:58N 37°24' E 025°20'0 0.0
2018-Aug-01 10:25N 37°24' E 025°20'0 0.0
2018-Aug-01 10:01N 37°24' E 025°20'0 0.0
2018-Aug-01 09:31N 37°24' E 025°20'0 0.0
2018-Aug-01 09:01N 37°24' E 025°20'0 0.0
2018-Aug-01 08:27N 37°24' E 025°20'0 0.0
2018-Aug-01 08:00N 37°24' E 025°20'0 0.0
2018-Aug-01 07:30N 37°24' E 025°20'0 0.0
2018-Aug-01 07:00N 37°24' E 025°20'0 0.0
2018-Aug-01 06:30N 37°24' E 025°20'0 0.0
2018-Aug-01 06:00N 37°24' E 025°20'0 0.0
2018-Aug-01 05:30N 37°24' E 025°20'0 0.0
2018-Aug-01 05:00N 37°24' E 025°20'0 0.0
2018-Aug-01 04:27N 37°24' E 025°20'0 0.0
2018-Aug-01 04:00N 37°24' E 025°20'0 0.0
2018-Aug-01 03:30N 37°24' E 025°20'0 0.0
2018-Aug-01 03:00N 37°24' E 025°20'0 0.0
2018-Aug-01 02:27N 37°24' E 025°20'0 0.0
2018-Aug-01 02:00N 37°24' E 025°20'0 0.0
2018-Aug-01 01:30N 37°24' E 025°20'0 0.0
2018-Aug-01 01:00N 37°24' E 025°20'0 0.0
2018-Jul-31 22:30N 37°24' E 025°20'0 0.0
2018-Jul-31 22:00N 37°24' E 025°20'0 0.0
2018-Jul-31 21:30N 37°24' E 025°20'0 0.0
2018-Jul-31 21:01N 37°24' E 025°20'0 0.0
2018-Jul-31 20:31N 37°24' E 025°20'0 0.0
2018-Jul-31 20:01N 37°24' E 025°20'0 0.0
2018-Jul-31 19:31N 37°24' E 025°20'0 0.0
2018-Jul-31 19:01N 37°24' E 025°20'0 0.0
2018-Jul-31 18:31N 37°24' E 025°20'0 0.0
2018-Jul-31 18:00N 37°24' E 025°20'0 0.0
2018-Jul-31 17:31N 37°24' E 025°20'0 0.0
2018-Jul-31 17:00N 37°24' E 025°20'0 0.1
2018-Jul-31 16:31N 37°24' E 025°20'0 0.0
2018-Jul-31 16:01N 37°24' E 025°20'0 0.0
2018-Jul-31 15:30N 37°24' E 025°20'0 0.0
2018-Jul-31 15:00N 37°24' E 025°20'0 0.0
2018-Jul-31 14:30N 37°24' E 025°20'0 0.0
2018-Jul-31 14:01N 37°24' E 025°20'0 0.0
2018-Jul-31 13:30N 37°24' E 025°20'0 0.0
2018-Jul-31 13:00N 37°24' E 025°20'0 0.0
2018-Jul-31 12:31N 37°24' E 025°20'0 0.0
2018-Jul-31 12:00N 37°24' E 025°20'0 0.0
2018-Jul-31 11:31N 37°24' E 025°20'0 0.1
2018-Jul-31 11:00N 37°24' E 025°20'0 0.1
2018-Jul-31 10:30N 37°24' E 025°20'0 0.0
2018-Jul-31 10:00N 37°24' E 025°20'0 0.0
2018-Jul-31 09:30N 37°24' E 025°20'0 0.0
2018-Jul-31 09:00N 37°24' E 025°20'2 3.2
2018-Jul-31 08:30N 37°23' E 025°20'2 3.9
2018-Jul-31 08:00N 37°21' E 025°20'2 3.7
2018-Jul-31 07:30N 37°19' E 025°20'2 3.8
2018-Jul-31 07:01N 37°17' E 025°20'2 4.0
2018-Jul-31 06:31N 37°15' E 025°20'2 4.3
2018-Jul-31 06:00N 37°13' E 025°20'2 4.4
2018-Jul-31 05:31N 37°11' E 025°19'2 4.9
2018-Jul-31 05:00N 37°08' E 025°19'2 4.7
2018-Jul-31 04:31N 37°06' E 025°19'2 5.0
2018-Jul-31 04:01N 37°04' E 025°18'3 5.1
2018-Jul-31 03:30N 37°01' E 025°18'  

Dump ship's entire track history